sensor_id;sensor_type;location;lat;lon;timestamp;P1;durP1;ratioP1;P2;durP2;ratioP2
21827;SDS011;11076;47.942;11.804;2022-07-18T00:02:06;2.95;;;2.28;;
21827;SDS011;11076;47.942;11.804;2022-07-18T00:07:09;3.25;;;2.38;;
21827;SDS011;11076;47.942;11.804;2022-07-18T00:12:15;2.58;;;2.38;;
21827;SDS011;11076;47.942;11.804;2022-07-18T00:17:17;2.63;;;2.35;;
21827;SDS011;11076;47.942;11.804;2022-07-18T00:22:20;2.80;;;2.53;;
21827;SDS011;11076;47.942;11.804;2022-07-18T00:27:23;2.95;;;2.65;;
21827;SDS011;11076;47.942;11.804;2022-07-18T00:32:25;2.55;;;2.35;;
21827;SDS011;11076;47.942;11.804;2022-07-18T00:37:28;4.22;;;2.60;;
21827;SDS011;11076;47.942;11.804;2022-07-18T00:42:30;3.38;;;2.60;;
21827;SDS011;11076;47.942;11.804;2022-07-18T00:47:33;3.45;;;2.80;;
21827;SDS011;11076;47.942;11.804;2022-07-18T00:52:35;3.65;;;2.70;;
21827;SDS011;11076;47.942;11.804;2022-07-18T00:57:39;3.25;;;2.58;;
21827;SDS011;11076;47.942;11.804;2022-07-18T01:02:42;2.80;;;2.60;;
21827;SDS011;11076;47.942;11.804;2022-07-18T01:07:44;3.22;;;2.90;;
21827;SDS011;11076;47.942;11.804;2022-07-18T01:12:47;2.53;;;2.28;;
21827;SDS011;11076;47.942;11.804;2022-07-18T01:17:49;2.67;;;2.47;;
21827;SDS011;11076;47.942;11.804;2022-07-18T01:22:52;4.18;;;2.78;;
21827;SDS011;11076;47.942;11.804;2022-07-18T01:27:54;7.28;;;2.65;;
21827;SDS011;11076;47.942;11.804;2022-07-18T01:32:59;3.30;;;3.00;;
21827;SDS011;11076;47.942;11.804;2022-07-18T01:38:03;3.47;;;2.70;;
21827;SDS011;11076;47.942;11.804;2022-07-18T01:43:06;3.70;;;3.20;;
21827;SDS011;11076;47.942;11.804;2022-07-18T01:48:09;3.10;;;2.88;;
21827;SDS011;11076;47.942;11.804;2022-07-18T01:53:12;3.53;;;3.22;;
21827;SDS011;11076;47.942;11.804;2022-07-18T01:58:16;7.47;;;3.08;;
21827;SDS011;11076;47.942;11.804;2022-07-18T02:03:18;7.82;;;2.90;;
21827;SDS011;11076;47.942;11.804;2022-07-18T02:08:21;3.30;;;3.00;;
21827;SDS011;11076;47.942;11.804;2022-07-18T02:13:23;4.13;;;2.53;;
21827;SDS011;11076;47.942;11.804;2022-07-18T02:18:26;3.67;;;2.72;;
21827;SDS011;11076;47.942;11.804;2022-07-18T02:23:29;3.38;;;2.72;;
21827;SDS011;11076;47.942;11.804;2022-07-18T02:28:31;6.78;;;3.10;;
21827;SDS011;11076;47.942;11.804;2022-07-18T02:33:34;3.58;;;2.90;;
21827;SDS011;11076;47.942;11.804;2022-07-18T02:38:36;6.97;;;3.78;;
21827;SDS011;11076;47.942;11.804;2022-07-18T02:43:39;3.40;;;3.10;;
21827;SDS011;11076;47.942;11.804;2022-07-18T02:48:41;3.05;;;2.80;;
21827;SDS011;11076;47.942;11.804;2022-07-18T02:53:44;2.92;;;2.65;;
21827;SDS011;11076;47.942;11.804;2022-07-18T02:58:46;2.97;;;2.78;;
21827;SDS011;11076;47.942;11.804;2022-07-18T03:03:49;3.08;;;2.75;;
21827;SDS011;11076;47.942;11.804;2022-07-18T03:08:51;3.08;;;2.72;;
21827;SDS011;11076;47.942;11.804;2022-07-18T03:13:54;4.57;;;2.88;;
21827;SDS011;11076;47.942;11.804;2022-07-18T03:18:56;3.40;;;2.80;;
21827;SDS011;11076;47.942;11.804;2022-07-18T03:23:59;3.50;;;2.95;;
21827;SDS011;11076;47.942;11.804;2022-07-18T03:29:02;5.38;;;3.08;;
21827;SDS011;11076;47.942;11.804;2022-07-18T03:34:04;3.35;;;3.03;;
21827;SDS011;11076;47.942;11.804;2022-07-18T03:39:07;3.08;;;2.83;;
21827;SDS011;11076;47.942;11.804;2022-07-18T03:44:11;4.78;;;3.28;;
21827;SDS011;11076;47.942;11.804;2022-07-18T03:49:13;3.22;;;2.92;;
21827;SDS011;11076;47.942;11.804;2022-07-18T03:54:15;3.08;;;2.80;;
21827;SDS011;11076;47.942;11.804;2022-07-18T03:59:18;4.60;;;3.00;;
21827;SDS011;11076;47.942;11.804;2022-07-18T04:04:20;3.47;;;2.85;;
21827;SDS011;11076;47.942;11.804;2022-07-18T04:09:23;4.45;;;3.13;;
21827;SDS011;11076;47.942;11.804;2022-07-18T04:14:25;4.70;;;2.85;;
21827;SDS011;11076;47.942;11.804;2022-07-18T04:19:28;3.60;;;3.05;;
21827;SDS011;11076;47.942;11.804;2022-07-18T04:24:30;5.75;;;3.00;;
21827;SDS011;11076;47.942;11.804;2022-07-18T04:29:32;3.58;;;2.97;;
21827;SDS011;11076;47.942;11.804;2022-07-18T04:34:35;3.30;;;2.75;;
21827;SDS011;11076;47.942;11.804;2022-07-18T04:39:37;4.97;;;2.75;;
21827;SDS011;11076;47.942;11.804;2022-07-18T04:44:40;2.83;;;2.45;;
21827;SDS011;11076;47.942;11.804;2022-07-18T04:49:42;5.93;;;2.45;;
21827;SDS011;11076;47.942;11.804;2022-07-18T04:54:45;5.18;;;3.03;;
21827;SDS011;11076;47.942;11.804;2022-07-18T04:59:47;4.00;;;2.85;;
21827;SDS011;11076;47.942;11.804;2022-07-18T05:04:50;6.53;;;2.88;;
21827;SDS011;11076;47.942;11.804;2022-07-18T05:09:52;4.97;;;2.63;;
21827;SDS011;11076;47.942;11.804;2022-07-18T05:14:55;4.20;;;2.63;;
21827;SDS011;11076;47.942;11.804;2022-07-18T05:20:04;10.73;;;2.90;;
21827;SDS011;11076;47.942;11.804;2022-07-18T05:25:08;3.28;;;2.30;;
21827;SDS011;11076;47.942;11.804;2022-07-18T05:30:12;5.13;;;2.47;;
21827;SDS011;11076;47.942;11.804;2022-07-18T05:35:15;2.95;;;2.15;;
21827;SDS011;11076;47.942;11.804;2022-07-18T05:40:18;1.85;;;1.75;;
21827;SDS011;11076;47.942;11.804;2022-07-18T05:45:21;4.57;;;1.92;;
21827;SDS011;11076;47.942;11.804;2022-07-18T05:50:27;4.78;;;2.10;;
21827;SDS011;11076;47.942;11.804;2022-07-18T05:55:29;2.13;;;1.90;;
21827;SDS011;11076;47.942;11.804;2022-07-18T06:00:32;2.28;;;1.88;;
21827;SDS011;11076;47.942;11.804;2022-07-18T06:05:35;2.13;;;1.90;;
21827;SDS011;11076;47.942;11.804;2022-07-18T06:10:37;4.35;;;1.98;;
21827;SDS011;11076;47.942;11.804;2022-07-18T06:15:42;4.07;;;2.10;;
21827;SDS011;11076;47.942;11.804;2022-07-18T06:20:44;2.97;;;1.75;;
21827;SDS011;11076;47.942;11.804;2022-07-18T06:25:47;3.67;;;2.05;;
21827;SDS011;11076;47.942;11.804;2022-07-18T06:30:49;2.25;;;2.00;;
21827;SDS011;11076;47.942;11.804;2022-07-18T06:35:51;2.75;;;1.80;;
21827;SDS011;11076;47.942;11.804;2022-07-18T06:40:54;4.72;;;2.08;;
21827;SDS011;11076;47.942;11.804;2022-07-18T06:45:56;3.88;;;2.08;;
21827;SDS011;11076;47.942;11.804;2022-07-18T06:51:00;6.53;;;1.90;;
21827;SDS011;11076;47.942;11.804;2022-07-18T06:56:04;3.95;;;1.92;;
21827;SDS011;11076;47.942;11.804;2022-07-18T07:01:07;2.78;;;1.88;;
21827;SDS011;11076;47.942;11.804;2022-07-18T07:06:10;1.92;;;1.70;;
21827;SDS011;11076;47.942;11.804;2022-07-18T07:11:12;5.97;;;1.73;;
21827;SDS011;11076;47.942;11.804;2022-07-18T07:16:15;2.40;;;1.88;;
21827;SDS011;11076;47.942;11.804;2022-07-18T07:21:18;6.88;;;1.92;;
21827;SDS011;11076;47.942;11.804;2022-07-18T07:26:21;1.80;;;1.70;;
21827;SDS011;11076;47.942;11.804;2022-07-18T07:31:23;4.82;;;2.10;;
21827;SDS011;11076;47.942;11.804;2022-07-18T07:36:26;1.60;;;1.50;;
21827;SDS011;11076;47.942;11.804;2022-07-18T07:41:28;5.32;;;1.88;;
21827;SDS011;11076;47.942;11.804;2022-07-18T07:46:30;6.03;;;2.13;;
21827;SDS011;11076;47.942;11.804;2022-07-18T07:51:33;1.80;;;1.52;;
21827;SDS011;11076;47.942;11.804;2022-07-18T07:56:36;4.97;;;1.92;;
21827;SDS011;11076;47.942;11.804;2022-07-18T08:01:38;3.20;;;1.70;;
21827;SDS011;11076;47.942;11.804;2022-07-18T08:06:41;4.32;;;2.22;;
21827;SDS011;11076;47.942;11.804;2022-07-18T08:11:43;1.75;;;1.63;;
21827;SDS011;11076;47.942;11.804;2022-07-18T08:16:45;4.63;;;1.60;;
21827;SDS011;11076;47.942;11.804;2022-07-18T08:21:48;1.50;;;1.38;;
21827;SDS011;11076;47.942;11.804;2022-07-18T08:26:50;1.42;;;1.33;;
21827;SDS011;11076;47.942;11.804;2022-07-18T08:31:53;1.90;;;1.17;;
21827;SDS011;11076;47.942;11.804;2022-07-18T08:36:55;2.70;;;1.75;;
21827;SDS011;11076;47.942;11.804;2022-07-18T08:41:59;3.70;;;1.58;;
21827;SDS011;11076;47.942;11.804;2022-07-18T08:47:03;1.60;;;1.50;;
21827;SDS011;11076;47.942;11.804;2022-07-18T08:52:07;1.10;;;1.10;;
21827;SDS011;11076;47.942;11.804;2022-07-18T08:57:12;3.80;;;1.20;;
21827;SDS011;11076;47.942;11.804;2022-07-18T09:02:15;3.03;;;1.83;;
21827;SDS011;11076;47.942;11.804;2022-07-18T09:07:25;1.48;;;1.38;;
21827;SDS011;11076;47.942;11.804;2022-07-18T09:12:32;3.50;;;1.33;;
21827;SDS011;11076;47.942;11.804;2022-07-18T09:17:36;1.63;;;1.45;;
21827;SDS011;11076;47.942;11.804;2022-07-18T09:22:39;2.15;;;1.80;;
21827;SDS011;11076;47.942;11.804;2022-07-18T09:27:43;4.00;;;1.42;;
21827;SDS011;11076;47.942;11.804;2022-07-18T09:38:06;1.40;;;1.30;;
21827;SDS011;11076;47.942;11.804;2022-07-18T09:43:11;2.28;;;1.38;;
21827;SDS011;11076;47.942;11.804;2022-07-18T09:48:17;1.42;;;1.30;;
21827;SDS011;11076;47.942;11.804;2022-07-18T09:53:24;1.45;;;1.35;;
21827;SDS011;11076;47.942;11.804;2022-07-18T09:58:34;1.67;;;1.58;;
21827;SDS011;11076;47.942;11.804;2022-07-18T10:03:41;4.47;;;1.35;;
21827;SDS011;11076;47.942;11.804;2022-07-18T10:08:43;2.15;;;1.40;;
21827;SDS011;11076;47.942;11.804;2022-07-18T10:13:46;1.85;;;1.52;;
21827;SDS011;11076;47.942;11.804;2022-07-18T10:18:48;2.20;;;1.63;;
21827;SDS011;11076;47.942;11.804;2022-07-18T10:23:51;1.48;;;1.35;;
21827;SDS011;11076;47.942;11.804;2022-07-18T10:39:14;1.73;;;1.30;;
21827;SDS011;11076;47.942;11.804;2022-07-18T11:00:28;1.38;;;1.20;;
21827;SDS011;11076;47.942;11.804;2022-07-18T11:05:44;1.63;;;1.35;;
21827;SDS011;11076;47.942;11.804;2022-07-18T11:21:15;1.95;;;1.30;;
21827;SDS011;11076;47.942;11.804;2022-07-18T11:26:19;1.00;;;0.90;;
21827;SDS011;11076;47.942;11.804;2022-07-18T11:31:24;4.68;;;1.00;;
21827;SDS011;11076;47.942;11.804;2022-07-18T11:36:28;1.27;;;1.17;;
21827;SDS011;11076;47.942;11.804;2022-07-18T11:41:33;3.58;;;1.00;;
21827;SDS011;11076;47.942;11.804;2022-07-18T11:46:39;3.00;;;1.40;;
21827;SDS011;11076;47.942;11.804;2022-07-18T11:51:42;3.60;;;0.90;;
21827;SDS011;11076;47.942;11.804;2022-07-18T11:56:47;2.53;;;1.15;;
21827;SDS011;11076;47.942;11.804;2022-07-18T12:01:51;1.40;;;1.30;;
21827;SDS011;11076;47.942;11.804;2022-07-18T12:07:17;4.00;;;0.77;;
21827;SDS011;11076;47.942;11.804;2022-07-18T12:12:26;1.30;;;1.00;;
21827;SDS011;11076;47.942;11.804;2022-07-18T12:17:29;4.28;;;1.00;;
21827;SDS011;11076;47.942;11.804;2022-07-18T12:22:32;3.47;;;1.05;;
21827;SDS011;11076;47.942;11.804;2022-07-18T12:27:35;1.30;;;1.20;;
21827;SDS011;11076;47.942;11.804;2022-07-18T12:32:42;3.53;;;1.10;;
21827;SDS011;11076;47.942;11.804;2022-07-18T12:43:07;2.22;;;1.27;;
21827;SDS011;11076;47.942;11.804;2022-07-18T12:48:17;5.05;;;1.40;;
21827;SDS011;11076;47.942;11.804;2022-07-18T12:53:19;1.77;;;0.90;;
21827;SDS011;11076;47.942;11.804;2022-07-18T12:58:22;5.13;;;1.08;;
21827;SDS011;11076;47.942;11.804;2022-07-18T13:03:24;1.83;;;1.17;;
21827;SDS011;11076;47.942;11.804;2022-07-18T13:08:27;1.27;;;1.00;;
21827;SDS011;11076;47.942;11.804;2022-07-18T13:13:30;5.95;;;1.30;;
21827;SDS011;11076;47.942;11.804;2022-07-18T13:18:32;1.83;;;0.88;;
21827;SDS011;11076;47.942;11.804;2022-07-18T13:23:35;4.00;;;1.15;;
21827;SDS011;11076;47.942;11.804;2022-07-18T13:28:37;1.48;;;1.05;;
21827;SDS011;11076;47.942;11.804;2022-07-18T13:33:40;3.63;;;1.98;;
21827;SDS011;11076;47.942;11.804;2022-07-18T13:38:42;1.85;;;1.17;;
21827;SDS011;11076;47.942;11.804;2022-07-18T13:43:45;2.10;;;0.95;;
21827;SDS011;11076;47.942;11.804;2022-07-18T13:48:47;1.00;;;1.00;;
21827;SDS011;11076;47.942;11.804;2022-07-18T13:53:51;8.38;;;1.75;;
21827;SDS011;11076;47.942;11.804;2022-07-18T13:58:54;2.63;;;1.20;;
21827;SDS011;11076;47.942;11.804;2022-07-18T14:03:56;6.70;;;1.50;;
21827;SDS011;11076;47.942;11.804;2022-07-18T14:08:59;4.75;;;1.10;;
21827;SDS011;11076;47.942;11.804;2022-07-18T14:14:02;1.98;;;1.17;;
21827;SDS011;11076;47.942;11.804;2022-07-18T14:19:05;2.50;;;1.10;;
21827;SDS011;11076;47.942;11.804;2022-07-18T14:24:08;10.50;;;1.50;;
21827;SDS011;11076;47.942;11.804;2022-07-18T14:29:10;5.93;;;1.77;;
21827;SDS011;11076;47.942;11.804;2022-07-18T14:34:12;2.53;;;1.40;;
21827;SDS011;11076;47.942;11.804;2022-07-18T14:39:15;2.08;;;1.20;;
21827;SDS011;11076;47.942;11.804;2022-07-18T14:44:17;2.25;;;1.25;;
21827;SDS011;11076;47.942;11.804;2022-07-18T14:49:20;2.65;;;1.20;;
21827;SDS011;11076;47.942;11.804;2022-07-18T14:54:23;3.28;;;1.20;;
21827;SDS011;11076;47.942;11.804;2022-07-18T14:59:25;1.77;;;1.20;;
21827;SDS011;11076;47.942;11.804;2022-07-18T15:04:28;1.45;;;1.00;;
21827;SDS011;11076;47.942;11.804;2022-07-18T15:09:30;2.40;;;1.20;;
21827;SDS011;11076;47.942;11.804;2022-07-18T15:14:35;1.15;;;1.00;;
21827;SDS011;11076;47.942;11.804;2022-07-18T15:19:37;2.50;;;1.10;;
21827;SDS011;11076;47.942;11.804;2022-07-18T15:24:40;4.32;;;1.20;;
21827;SDS011;11076;47.942;11.804;2022-07-18T15:29:42;2.30;;;1.23;;
21827;SDS011;11076;47.942;11.804;2022-07-18T15:34:45;4.35;;;1.75;;
21827;SDS011;11076;47.942;11.804;2022-07-18T15:39:47;4.47;;;0.98;;
21827;SDS011;11076;47.942;11.804;2022-07-18T15:44:50;1.25;;;0.90;;
21827;SDS011;11076;47.942;11.804;2022-07-18T15:49:52;1.17;;;1.13;;
21827;SDS011;11076;47.942;11.804;2022-07-18T15:54:56;6.68;;;1.48;;
21827;SDS011;11076;47.942;11.804;2022-07-18T15:59:58;1.38;;;1.15;;
21827;SDS011;11076;47.942;11.804;2022-07-18T16:05:01;1.15;;;1.05;;
21827;SDS011;11076;47.942;11.804;2022-07-18T16:10:05;1.83;;;1.33;;
21827;SDS011;11076;47.942;11.804;2022-07-18T16:15:08;1.55;;;1.10;;
21827;SDS011;11076;47.942;11.804;2022-07-18T16:20:11;5.38;;;1.27;;
21827;SDS011;11076;47.942;11.804;2022-07-18T16:25:16;5.13;;;2.10;;
21827;SDS011;11076;47.942;11.804;2022-07-18T16:30:19;2.58;;;1.20;;
21827;SDS011;11076;47.942;11.804;2022-07-18T16:35:21;3.03;;;2.08;;
21827;SDS011;11076;47.942;11.804;2022-07-18T16:40:24;1.63;;;1.48;;
21827;SDS011;11076;47.942;11.804;2022-07-18T16:45:26;8.15;;;2.13;;
21827;SDS011;11076;47.942;11.804;2022-07-18T16:50:29;3.95;;;1.50;;
21827;SDS011;11076;47.942;11.804;2022-07-18T16:55:32;4.15;;;1.10;;
21827;SDS011;11076;47.942;11.804;2022-07-18T17:00:35;3.22;;;1.20;;
21827;SDS011;11076;47.942;11.804;2022-07-18T17:05:37;3.88;;;1.20;;
21827;SDS011;11076;47.942;11.804;2022-07-18T17:10:40;2.38;;;1.30;;
21827;SDS011;11076;47.942;11.804;2022-07-18T17:15:43;4.40;;;1.40;;
21827;SDS011;11076;47.942;11.804;2022-07-18T17:20:47;2.35;;;1.20;;
21827;SDS011;11076;47.942;11.804;2022-07-18T17:25:50;2.60;;;1.17;;
21827;SDS011;11076;47.942;11.804;2022-07-18T17:30:52;2.35;;;1.20;;
21827;SDS011;11076;47.942;11.804;2022-07-18T17:35:56;2.72;;;1.33;;
21827;SDS011;11076;47.942;11.804;2022-07-18T17:41:00;1.42;;;1.33;;
21827;SDS011;11076;47.942;11.804;2022-07-18T17:46:08;3.08;;;1.40;;
21827;SDS011;11076;47.942;11.804;2022-07-18T17:51:12;1.83;;;1.30;;
21827;SDS011;11076;47.942;11.804;2022-07-18T17:56:14;2.30;;;1.00;;
21827;SDS011;11076;47.942;11.804;2022-07-18T18:01:18;5.10;;;1.42;;
21827;SDS011;11076;47.942;11.804;2022-07-18T18:06:21;9.23;;;2.20;;
21827;SDS011;11076;47.942;11.804;2022-07-18T18:11:24;3.72;;;1.38;;
21827;SDS011;11076;47.942;11.804;2022-07-18T18:16:27;5.80;;;1.30;;
21827;SDS011;11076;47.942;11.804;2022-07-18T18:21:29;1.90;;;1.40;;
21827;SDS011;11076;47.942;11.804;2022-07-18T18:26:32;4.63;;;1.63;;
21827;SDS011;11076;47.942;11.804;2022-07-18T18:31:34;2.70;;;1.33;;
21827;SDS011;11076;47.942;11.804;2022-07-18T18:36:37;3.35;;;1.27;;
21827;SDS011;11076;47.942;11.804;2022-07-18T18:41:58;2.75;;;1.40;;
21827;SDS011;11076;47.942;11.804;2022-07-18T18:47:02;2.67;;;1.50;;
21827;SDS011;11076;47.942;11.804;2022-07-18T18:52:05;1.95;;;1.40;;
21827;SDS011;11076;47.942;11.804;2022-07-18T18:57:07;5.13;;;2.00;;
21827;SDS011;11076;47.942;11.804;2022-07-18T19:02:10;2.03;;;1.33;;
21827;SDS011;11076;47.942;11.804;2022-07-18T19:07:12;2.25;;;1.30;;
21827;SDS011;11076;47.942;11.804;2022-07-18T19:12:15;3.97;;;1.05;;
21827;SDS011;11076;47.942;11.804;2022-07-18T19:17:17;4.50;;;1.55;;
21827;SDS011;11076;47.942;11.804;2022-07-18T19:22:19;2.65;;;1.60;;
21827;SDS011;11076;47.942;11.804;2022-07-18T19:27:22;2.28;;;1.27;;
21827;SDS011;11076;47.942;11.804;2022-07-18T19:32:24;3.90;;;2.20;;
21827;SDS011;11076;47.942;11.804;2022-07-18T19:37:27;3.97;;;1.52;;
21827;SDS011;11076;47.942;11.804;2022-07-18T19:42:29;3.97;;;1.23;;
21827;SDS011;11076;47.942;11.804;2022-07-18T19:47:32;2.30;;;1.27;;
21827;SDS011;11076;47.942;11.804;2022-07-18T19:52:34;2.97;;;1.45;;
21827;SDS011;11076;47.942;11.804;2022-07-18T19:57:36;4.28;;;1.60;;
21827;SDS011;11076;47.942;11.804;2022-07-18T20:02:39;4.25;;;1.63;;
21827;SDS011;11076;47.942;11.804;2022-07-18T20:07:42;6.78;;;1.23;;
21827;SDS011;11076;47.942;11.804;2022-07-18T20:12:44;4.25;;;1.40;;
21827;SDS011;11076;47.942;11.804;2022-07-18T20:17:46;2.45;;;1.50;;
21827;SDS011;11076;47.942;11.804;2022-07-18T20:22:49;5.05;;;1.48;;
21827;SDS011;11076;47.942;11.804;2022-07-18T20:27:52;1.73;;;1.33;;
21827;SDS011;11076;47.942;11.804;2022-07-18T20:32:54;7.30;;;3.20;;
21827;SDS011;11076;47.942;11.804;2022-07-18T20:37:56;2.17;;;1.60;;
21827;SDS011;11076;47.942;11.804;2022-07-18T20:42:59;8.27;;;1.90;;
21827;SDS011;11076;47.942;11.804;2022-07-18T20:48:03;3.28;;;1.67;;
21827;SDS011;11076;47.942;11.804;2022-07-18T20:53:05;4.78;;;1.63;;
21827;SDS011;11076;47.942;11.804;2022-07-18T20:58:08;6.55;;;2.33;;
21827;SDS011;11076;47.942;11.804;2022-07-18T21:03:10;1.50;;;1.40;;
21827;SDS011;11076;47.942;11.804;2022-07-18T21:08:12;4.03;;;1.63;;
21827;SDS011;11076;47.942;11.804;2022-07-18T21:13:15;2.95;;;1.60;;
21827;SDS011;11076;47.942;11.804;2022-07-18T21:18:18;6.32;;;2.10;;
21827;SDS011;11076;47.942;11.804;2022-07-18T21:23:21;2.35;;;1.50;;
21827;SDS011;11076;47.942;11.804;2022-07-18T21:28:24;1.65;;;1.30;;
21827;SDS011;11076;47.942;11.804;2022-07-18T21:33:26;2.17;;;1.73;;
21827;SDS011;11076;47.942;11.804;2022-07-18T21:38:29;1.83;;;1.35;;
21827;SDS011;11076;47.942;11.804;2022-07-18T21:43:31;7.43;;;1.70;;
21827;SDS011;11076;47.942;11.804;2022-07-18T21:48:33;2.15;;;1.73;;
21827;SDS011;11076;47.942;11.804;2022-07-18T21:53:36;2.35;;;1.58;;
21827;SDS011;11076;47.942;11.804;2022-07-18T21:58:38;3.42;;;1.83;;
21827;SDS011;11076;47.942;11.804;2022-07-18T22:03:41;1.98;;;1.52;;
21827;SDS011;11076;47.942;11.804;2022-07-18T22:08:43;6.35;;;1.45;;
21827;SDS011;11076;47.942;11.804;2022-07-18T22:13:46;2.38;;;1.50;;
21827;SDS011;11076;47.942;11.804;2022-07-18T22:18:48;1.80;;;1.35;;
21827;SDS011;11076;47.942;11.804;2022-07-18T22:23:54;1.63;;;1.52;;
21827;SDS011;11076;47.942;11.804;2022-07-18T22:28:57;1.60;;;1.50;;
21827;SDS011;11076;47.942;11.804;2022-07-18T22:34:00;2.75;;;1.58;;
21827;SDS011;11076;47.942;11.804;2022-07-18T22:39:02;5.93;;;1.67;;
21827;SDS011;11076;47.942;11.804;2022-07-18T22:44:05;3.72;;;1.67;;
21827;SDS011;11076;47.942;11.804;2022-07-18T22:49:07;6.10;;;3.80;;
21827;SDS011;11076;47.942;11.804;2022-07-18T22:54:10;2.78;;;1.50;;
21827;SDS011;11076;47.942;11.804;2022-07-18T22:59:12;2.55;;;2.00;;
21827;SDS011;11076;47.942;11.804;2022-07-18T23:04:14;2.47;;;1.50;;
21827;SDS011;11076;47.942;11.804;2022-07-18T23:09:17;5.85;;;2.08;;
21827;SDS011;11076;47.942;11.804;2022-07-18T23:14:19;3.92;;;2.28;;
21827;SDS011;11076;47.942;11.804;2022-07-18T23:19:22;2.47;;;2.20;;
21827;SDS011;11076;47.942;11.804;2022-07-18T23:24:24;1.88;;;1.73;;
21827;SDS011;11076;47.942;11.804;2022-07-18T23:29:27;5.90;;;1.90;;
21827;SDS011;11076;47.942;11.804;2022-07-18T23:34:29;3.45;;;2.85;;
21827;SDS011;11076;47.942;11.804;2022-07-18T23:39:32;1.75;;;1.65;;
21827;SDS011;11076;47.942;11.804;2022-07-18T23:44:35;2.10;;;1.85;;
21827;SDS011;11076;47.942;11.804;2022-07-18T23:49:37;1.83;;;1.73;;
21827;SDS011;11076;47.942;11.804;2022-07-18T23:54:40;1.33;;;1.30;;
21827;SDS011;11076;47.942;11.804;2022-07-18T23:59:42;1.70;;;1.48;;
